sensor_id;sensor_type;location;lat;lon;timestamp;temperature;humidity
16408;DHT22;8313;49.894;8.084;2023-03-26T00:01:20;9.10;99.90
16408;DHT22;8313;49.894;8.084;2023-03-26T00:03:46;9.10;99.90
16408;DHT22;8313;49.894;8.084;2023-03-26T00:06:19;9.10;99.90
16408;DHT22;8313;49.894;8.084;2023-03-26T00:08:47;9.10;99.90
16408;DHT22;8313;49.894;8.084;2023-03-26T00:11:15;9.10;99.90
16408;DHT22;8313;49.894;8.084;2023-03-26T00:13:42;9.10;99.90
16408;DHT22;8313;49.894;8.084;2023-03-26T00:16:13;9.10;99.90
16408;DHT22;8313;49.894;8.084;2023-03-26T00:18:40;9.10;99.90
16408;DHT22;8313;49.894;8.084;2023-03-26T00:21:07;9.10;99.90
16408;DHT22;8313;49.894;8.084;2023-03-26T00:23:34;9.10;99.90
16408;DHT22;8313;49.894;8.084;2023-03-26T00:26:02;9.10;99.90
16408;DHT22;8313;49.894;8.084;2023-03-26T00:28:28;9.10;99.90
16408;DHT22;8313;49.894;8.084;2023-03-26T00:31:01;9.10;99.90
16408;DHT22;8313;49.894;8.084;2023-03-26T00:33:27;9.10;99.90
16408;DHT22;8313;49.894;8.084;2023-03-26T00:35:54;9.00;99.90
16408;DHT22;8313;49.894;8.084;2023-03-26T00:38:21;9.00;99.90
16408;DHT22;8313;49.894;8.084;2023-03-26T00:40:51;8.80;99.90
16408;DHT22;8313;49.894;8.084;2023-03-26T00:43:18;8.80;99.90
16408;DHT22;8313;49.894;8.084;2023-03-26T00:45:53;8.80;99.90
16408;DHT22;8313;49.894;8.084;2023-03-26T00:48:20;8.70;99.90
16408;DHT22;8313;49.894;8.084;2023-03-26T00:50:47;8.60;99.90
16408;DHT22;8313;49.894;8.084;2023-03-26T00:53:15;8.60;99.90
16408;DHT22;8313;49.894;8.084;2023-03-26T00:55:42;8.70;99.90
16408;DHT22;8313;49.894;8.084;2023-03-26T00:58:08;8.60;99.90
16408;DHT22;8313;49.894;8.084;2023-03-26T01:00:37;8.30;99.90
16408;DHT22;8313;49.894;8.084;2023-03-26T01:03:05;8.10;99.90
16408;DHT22;8313;49.894;8.084;2023-03-26T01:08:11;8.20;99.90
16408;DHT22;8313;49.894;8.084;2023-03-26T01:10:43;8.20;99.90
16408;DHT22;8313;49.894;8.084;2023-03-26T01:13:20;8.30;99.90
16408;DHT22;8313;49.894;8.084;2023-03-26T01:15:46;8.40;99.90
16408;DHT22;8313;49.894;8.084;2023-03-26T01:18:21;8.40;99.90
16408;DHT22;8313;49.894;8.084;2023-03-26T01:20:53;8.30;99.90
16408;DHT22;8313;49.894;8.084;2023-03-26T01:23:28;8.30;99.90
16408;DHT22;8313;49.894;8.084;2023-03-26T01:26:10;8.20;99.90
16408;DHT22;8313;49.894;8.084;2023-03-26T01:28:37;8.30;99.90
16408;DHT22;8313;49.894;8.084;2023-03-26T01:31:17;8.30;99.90
16408;DHT22;8313;49.894;8.084;2023-03-26T01:34:03;8.40;99.90
16408;DHT22;8313;49.894;8.084;2023-03-26T01:39:41;8.10;99.90
16408;DHT22;8313;49.894;8.084;2023-03-26T01:42:20;8.20;99.90
16408;DHT22;8313;49.894;8.084;2023-03-26T01:44:50;8.10;99.90
16408;DHT22;8313;49.894;8.084;2023-03-26T01:47:18;8.00;99.90
16408;DHT22;8313;49.894;8.084;2023-03-26T01:49:45;8.10;99.90
16408;DHT22;8313;49.894;8.084;2023-03-26T01:52:15;8.10;99.90
16408;DHT22;8313;49.894;8.084;2023-03-26T01:54:41;8.10;99.90
16408;DHT22;8313;49.894;8.084;2023-03-26T01:58:37;8.20;99.90
16408;DHT22;8313;49.894;8.084;2023-03-26T02:00:34;8.30;99.90
16408;DHT22;8313;49.894;8.084;2023-03-26T02:03:15;8.40;99.90
16408;DHT22;8313;49.894;8.084;2023-03-26T02:08:35;8.40;99.90
16408;DHT22;8313;49.894;8.084;2023-03-26T02:11:09;8.50;99.90
16408;DHT22;8313;49.894;8.084;2023-03-26T02:13:38;8.60;99.90
16408;DHT22;8313;49.894;8.084;2023-03-26T02:16:08;8.60;99.90
16408;DHT22;8313;49.894;8.084;2023-03-26T02:18:34;8.70;99.90
16408;DHT22;8313;49.894;8.084;2023-03-26T02:23:30;8.70;99.90
16408;DHT22;8313;49.894;8.084;2023-03-26T02:26:04;8.70;99.90
16408;DHT22;8313;49.894;8.084;2023-03-26T02:28:30;8.70;99.90
16408;DHT22;8313;49.894;8.084;2023-03-26T02:30:56;8.80;99.90
16408;DHT22;8313;49.894;8.084;2023-03-26T02:33:30;8.80;99.90
16408;DHT22;8313;49.894;8.084;2023-03-26T02:35:58;8.80;99.90
16408;DHT22;8313;49.894;8.084;2023-03-26T02:38:30;8.80;99.90
16408;DHT22;8313;49.894;8.084;2023-03-26T02:41:01;8.80;99.90
16408;DHT22;8313;49.894;8.084;2023-03-26T02:43:39;8.80;99.90
16408;DHT22;8313;49.894;8.084;2023-03-26T02:46:08;8.80;99.90
16408;DHT22;8313;49.894;8.084;2023-03-26T02:48:49;8.80;99.90
16408;DHT22;8313;49.894;8.084;2023-03-26T02:51:21;8.80;99.90
16408;DHT22;8313;49.894;8.084;2023-03-26T02:54:00;8.80;99.90
16408;DHT22;8313;49.894;8.084;2023-03-26T02:56:45;8.80;99.90
16408;DHT22;8313;49.894;8.084;2023-03-26T02:59:40;8.70;99.90
16408;DHT22;8313;49.894;8.084;2023-03-26T03:02:28;8.80;99.90
16408;DHT22;8313;49.894;8.084;2023-03-26T03:04:59;8.80;99.90
16408;DHT22;8313;49.894;8.084;2023-03-26T03:07:28;8.80;99.90
16408;DHT22;8313;49.894;8.084;2023-03-26T03:09:54;8.80;99.90
16408;DHT22;8313;49.894;8.084;2023-03-26T03:12:40;8.80;99.90
16408;DHT22;8313;49.894;8.084;2023-03-26T03:15:06;8.80;99.90
16408;DHT22;8313;49.894;8.084;2023-03-26T03:17:32;8.90;99.90
16408;DHT22;8313;49.894;8.084;2023-03-26T03:19:58;8.90;99.90
16408;DHT22;8313;49.894;8.084;2023-03-26T03:22:24;8.90;99.90
16408;DHT22;8313;49.894;8.084;2023-03-26T03:24:50;8.90;99.90
16408;DHT22;8313;49.894;8.084;2023-03-26T03:27:22;8.90;99.90
16408;DHT22;8313;49.894;8.084;2023-03-26T03:29:59;8.90;99.90
16408;DHT22;8313;49.894;8.084;2023-03-26T03:32:48;8.80;99.90
16408;DHT22;8313;49.894;8.084;2023-03-26T03:35:18;8.80;99.90
16408;DHT22;8313;49.894;8.084;2023-03-26T03:37:48;8.80;99.90
16408;DHT22;8313;49.894;8.084;2023-03-26T03:40:14;8.80;99.90
16408;DHT22;8313;49.894;8.084;2023-03-26T03:42:40;8.90;99.90
16408;DHT22;8313;49.894;8.084;2023-03-26T03:45:07;8.90;99.90
16408;DHT22;8313;49.894;8.084;2023-03-26T03:47:55;8.90;99.90
16408;DHT22;8313;49.894;8.084;2023-03-26T03:50:28;8.90;99.90
16408;DHT22;8313;49.894;8.084;2023-03-26T03:53:20;8.90;99.90
16408;DHT22;8313;49.894;8.084;2023-03-26T03:55:49;8.90;99.90
16408;DHT22;8313;49.894;8.084;2023-03-26T03:58:20;8.90;99.90
16408;DHT22;8313;49.894;8.084;2023-03-26T04:00:51;8.90;99.90
16408;DHT22;8313;49.894;8.084;2023-03-26T04:03:42;8.80;99.90
16408;DHT22;8313;49.894;8.084;2023-03-26T04:06:11;8.70;99.90
16408;DHT22;8313;49.894;8.084;2023-03-26T04:08:38;8.80;99.90
16408;DHT22;8313;49.894;8.084;2023-03-26T04:11:05;8.70;99.90
16408;DHT22;8313;49.894;8.084;2023-03-26T04:13:51;8.80;99.90
16408;DHT22;8313;49.894;8.084;2023-03-26T04:16:25;8.80;99.90
16408;DHT22;8313;49.894;8.084;2023-03-26T04:18:50;8.80;99.90
16408;DHT22;8313;49.894;8.084;2023-03-26T04:21:16;8.80;99.90
16408;DHT22;8313;49.894;8.084;2023-03-26T04:23:44;8.80;99.90
16408;DHT22;8313;49.894;8.084;2023-03-26T04:26:45;8.80;99.90
16408;DHT22;8313;49.894;8.084;2023-03-26T04:29:14;8.80;99.90
16408;DHT22;8313;49.894;8.084;2023-03-26T04:31:41;8.90;99.90
16408;DHT22;8313;49.894;8.084;2023-03-26T04:34:21;8.80;99.90
16408;DHT22;8313;49.894;8.084;2023-03-26T04:37:04;8.80;99.90
16408;DHT22;8313;49.894;8.084;2023-03-26T04:39:35;8.80;99.90
16408;DHT22;8313;49.894;8.084;2023-03-26T04:42:19;8.80;99.90
16408;DHT22;8313;49.894;8.084;2023-03-26T04:44:57;8.90;99.90
16408;DHT22;8313;49.894;8.084;2023-03-26T04:47:24;8.90;99.90
16408;DHT22;8313;49.894;8.084;2023-03-26T04:49:50;8.90;99.90
16408;DHT22;8313;49.894;8.084;2023-03-26T04:52:16;8.90;99.90
16408;DHT22;8313;49.894;8.084;2023-03-26T04:55:38;8.90;99.90
16408;DHT22;8313;49.894;8.084;2023-03-26T04:58:15;8.90;99.90
16408;DHT22;8313;49.894;8.084;2023-03-26T05:01:00;8.90;99.90
16408;DHT22;8313;49.894;8.084;2023-03-26T05:03:29;8.80;99.90
16408;DHT22;8313;49.894;8.084;2023-03-26T05:06:01;8.80;99.90
16408;DHT22;8313;49.894;8.084;2023-03-26T05:08:27;8.80;99.90
16408;DHT22;8313;49.894;8.084;2023-03-26T05:10:55;8.80;99.90
16408;DHT22;8313;49.894;8.084;2023-03-26T05:13:28;8.80;99.90
16408;DHT22;8313;49.894;8.084;2023-03-26T05:15:55;8.80;99.90
16408;DHT22;8313;49.894;8.084;2023-03-26T05:18:32;8.80;99.90
16408;DHT22;8313;49.894;8.084;2023-03-26T05:20:59;8.70;99.90
16408;DHT22;8313;49.894;8.084;2023-03-26T05:23:26;8.70;99.90
16408;DHT22;8313;49.894;8.084;2023-03-26T05:26:08;8.70;99.90
16408;DHT22;8313;49.894;8.084;2023-03-26T05:28:34;8.70;99.90
16408;DHT22;8313;49.894;8.084;2023-03-26T05:31:09;8.80;99.90
16408;DHT22;8313;49.894;8.084;2023-03-26T05:33:38;8.80;99.90
16408;DHT22;8313;49.894;8.084;2023-03-26T05:36:09;8.90;99.90
16408;DHT22;8313;49.894;8.084;2023-03-26T05:38:38;8.90;99.90
16408;DHT22;8313;49.894;8.084;2023-03-26T05:41:08;8.90;99.90
16408;DHT22;8313;49.894;8.084;2023-03-26T05:43:37;8.90;99.90
16408;DHT22;8313;49.894;8.084;2023-03-26T05:46:10;8.90;99.90
16408;DHT22;8313;49.894;8.084;2023-03-26T05:48:36;8.90;99.90
16408;DHT22;8313;49.894;8.084;2023-03-26T05:51:03;8.90;99.90
16408;DHT22;8313;49.894;8.084;2023-03-26T05:53:31;8.90;99.90
16408;DHT22;8313;49.894;8.084;2023-03-26T05:56:15;8.90;99.90
16408;DHT22;8313;49.894;8.084;2023-03-26T05:59:14;8.90;99.90
16408;DHT22;8313;49.894;8.084;2023-03-26T06:02:12;8.90;99.90
16408;DHT22;8313;49.894;8.084;2023-03-26T06:04:37;8.90;99.90
16408;DHT22;8313;49.894;8.084;2023-03-26T06:07:32;8.90;99.90
16408;DHT22;8313;49.894;8.084;2023-03-26T06:10:16;8.70;99.90
16408;DHT22;8313;49.894;8.084;2023-03-26T06:12:43;8.70;99.90
16408;DHT22;8313;49.894;8.084;2023-03-26T06:15:09;8.80;99.90
16408;DHT22;8313;49.894;8.084;2023-03-26T06:17:45;8.80;99.90
16408;DHT22;8313;49.894;8.084;2023-03-26T06:20:41;8.80;99.90
16408;DHT22;8313;49.894;8.084;2023-03-26T06:23:16;8.70;99.90
16408;DHT22;8313;49.894;8.084;2023-03-26T06:26:01;8.80;99.90
16408;DHT22;8313;49.894;8.084;2023-03-26T06:28:42;8.90;99.90
16408;DHT22;8313;49.894;8.084;2023-03-26T06:31:23;8.90;99.90
16408;DHT22;8313;49.894;8.084;2023-03-26T06:33:53;8.90;99.90
16408;DHT22;8313;49.894;8.084;2023-03-26T06:36:19;8.90;99.90
16408;DHT22;8313;49.894;8.084;2023-03-26T06:38:47;9.00;99.90
16408;DHT22;8313;49.894;8.084;2023-03-26T06:41:13;9.00;99.90
16408;DHT22;8313;49.894;8.084;2023-03-26T06:43:55;9.00;99.90
16408;DHT22;8313;49.894;8.084;2023-03-26T06:46:59;8.90;99.90
16408;DHT22;8313;49.894;8.084;2023-03-26T06:50:00;9.00;99.90
16408;DHT22;8313;49.894;8.084;2023-03-26T06:52:33;8.90;99.90
16408;DHT22;8313;49.894;8.084;2023-03-26T06:55:17;9.00;99.90
16408;DHT22;8313;49.894;8.084;2023-03-26T06:57:47;8.90;99.90
16408;DHT22;8313;49.894;8.084;2023-03-26T07:00:13;8.90;99.90
16408;DHT22;8313;49.894;8.084;2023-03-26T07:03:05;9.00;99.90
16408;DHT22;8313;49.894;8.084;2023-03-26T07:06:04;9.00;99.90
16408;DHT22;8313;49.894;8.084;2023-03-26T07:08:48;9.00;99.90
16408;DHT22;8313;49.894;8.084;2023-03-26T07:11:32;9.00;99.90
16408;DHT22;8313;49.894;8.084;2023-03-26T07:14:17;9.00;99.90
16408;DHT22;8313;49.894;8.084;2023-03-26T07:16:42;9.00;99.90
16408;DHT22;8313;49.894;8.084;2023-03-26T07:19:28;9.00;99.90
16408;DHT22;8313;49.894;8.084;2023-03-26T07:21:54;9.00;99.90
16408;DHT22;8313;49.894;8.084;2023-03-26T07:24:40;9.10;99.90
16408;DHT22;8313;49.894;8.084;2023-03-26T07:30:10;9.10;99.90
16408;DHT22;8313;49.894;8.084;2023-03-26T07:32:58;9.10;99.90
16408;DHT22;8313;49.894;8.084;2023-03-26T07:35:48;9.10;99.90
16408;DHT22;8313;49.894;8.084;2023-03-26T07:45:08;9.10;99.90
16408;DHT22;8313;49.894;8.084;2023-03-26T07:47:41;9.10;99.90
16408;DHT22;8313;49.894;8.084;2023-03-26T07:50:15;9.10;99.90
16408;DHT22;8313;49.894;8.084;2023-03-26T07:53:01;9.10;99.90
16408;DHT22;8313;49.894;8.084;2023-03-26T07:55:51;9.10;99.90
16408;DHT22;8313;49.894;8.084;2023-03-26T07:59:30;9.10;99.90
16408;DHT22;8313;49.894;8.084;2023-03-26T08:16:36;9.10;99.90
16408;DHT22;8313;49.894;8.084;2023-03-26T08:21:42;9.00;99.90
16408;DHT22;8313;49.894;8.084;2023-03-26T08:24:16;9.00;99.90
16408;DHT22;8313;49.894;8.084;2023-03-26T08:31:54;9.10;99.90
16408;DHT22;8313;49.894;8.084;2023-03-26T08:34:22;8.90;99.90
16408;DHT22;8313;49.894;8.084;2023-03-26T08:36:48;8.90;99.90
16408;DHT22;8313;49.894;8.084;2023-03-26T08:39:13;9.00;99.90
16408;DHT22;8313;49.894;8.084;2023-03-26T08:42:03;8.90;99.90
16408;DHT22;8313;49.894;8.084;2023-03-26T09:07:13;9.00;99.90
16408;DHT22;8313;49.894;8.084;2023-03-26T09:19:10;9.00;99.90
16408;DHT22;8313;49.894;8.084;2023-03-26T09:24:49;9.10;99.90
16408;DHT22;8313;49.894;8.084;2023-03-26T09:27:39;9.10;99.90
16408;DHT22;8313;49.894;8.084;2023-03-26T09:38:42;9.10;99.90
16408;DHT22;8313;49.894;8.084;2023-03-26T09:41:29;9.10;99.90
16408;DHT22;8313;49.894;8.084;2023-03-26T09:49:52;9.30;99.90
16408;DHT22;8313;49.894;8.084;2023-03-26T10:01:04;9.70;99.90
16408;DHT22;8313;49.894;8.084;2023-03-26T10:06:18;10.10;99.90
16408;DHT22;8313;49.894;8.084;2023-03-26T10:14:20;10.40;99.90
16408;DHT22;8313;49.894;8.084;2023-03-26T10:16:58;10.50;99.90
16408;DHT22;8313;49.894;8.084;2023-03-26T10:20:11;10.40;99.90
16408;DHT22;8313;49.894;8.084;2023-03-26T10:36:33;10.60;99.90
16408;DHT22;8313;49.894;8.084;2023-03-26T10:52:51;10.40;99.90
16408;DHT22;8313;49.894;8.084;2023-03-26T10:55:21;10.40;99.90
16408;DHT22;8313;49.894;8.084;2023-03-26T11:00:40;10.40;99.90
16408;DHT22;8313;49.894;8.084;2023-03-26T11:22:34;11.40;99.90
16408;DHT22;8313;49.894;8.084;2023-03-26T11:25:25;11.50;99.90
16408;DHT22;8313;49.894;8.084;2023-03-26T11:28:13;11.50;99.90
16408;DHT22;8313;49.894;8.084;2023-03-26T11:30:57;11.50;99.90
16408;DHT22;8313;49.894;8.084;2023-03-26T11:33:34;11.70;99.90
16408;DHT22;8313;49.894;8.084;2023-03-26T11:36:05;12.00;99.90
16408;DHT22;8313;49.894;8.084;2023-03-26T11:38:35;12.10;99.90
16408;DHT22;8313;49.894;8.084;2023-03-26T11:41:09;12.30;99.90
16408;DHT22;8313;49.894;8.084;2023-03-26T11:43:56;12.30;99.90
16408;DHT22;8313;49.894;8.084;2023-03-26T11:46:28;12.20;99.90
16408;DHT22;8313;49.894;8.084;2023-03-26T11:48:58;12.20;99.90
16408;DHT22;8313;49.894;8.084;2023-03-26T11:51:33;12.10;99.90
16408;DHT22;8313;49.894;8.084;2023-03-26T11:54:00;11.90;99.90
16408;DHT22;8313;49.894;8.084;2023-03-26T11:56:47;11.80;99.90
16408;DHT22;8313;49.894;8.084;2023-03-26T12:04:18;11.90;99.90
16408;DHT22;8313;49.894;8.084;2023-03-26T12:09:18;12.10;99.90
16408;DHT22;8313;49.894;8.084;2023-03-26T12:11:48;12.10;99.90
16408;DHT22;8313;49.894;8.084;2023-03-26T12:14:20;12.10;99.90
16408;DHT22;8313;49.894;8.084;2023-03-26T12:19:39;12.50;99.90
16408;DHT22;8313;49.894;8.084;2023-03-26T12:22:25;12.60;99.90
16408;DHT22;8313;49.894;8.084;2023-03-26T12:25:16;12.90;99.90
16408;DHT22;8313;49.894;8.084;2023-03-26T12:30:25;13.20;99.90
16408;DHT22;8313;49.894;8.084;2023-03-26T12:32:58;13.20;99.90
16408;DHT22;8313;49.894;8.084;2023-03-26T12:35:30;13.20;99.90
16408;DHT22;8313;49.894;8.084;2023-03-26T12:41:14;13.30;99.90
16408;DHT22;8313;49.894;8.084;2023-03-26T12:43:45;13.40;99.90
16408;DHT22;8313;49.894;8.084;2023-03-26T12:48:53;13.70;99.90
16408;DHT22;8313;49.894;8.084;2023-03-26T12:51:30;13.70;99.90
16408;DHT22;8313;49.894;8.084;2023-03-26T12:54:13;13.70;99.90
16408;DHT22;8313;49.894;8.084;2023-03-26T12:57:18;13.90;99.90
16408;DHT22;8313;49.894;8.084;2023-03-26T13:00:04;13.90;99.90
16408;DHT22;8313;49.894;8.084;2023-03-26T13:02:59;14.10;99.90
16408;DHT22;8313;49.894;8.084;2023-03-26T13:06:16;14.00;99.90
16408;DHT22;8313;49.894;8.084;2023-03-26T13:14:13;13.30;99.90
16408;DHT22;8313;49.894;8.084;2023-03-26T13:19:43;13.30;99.90
16408;DHT22;8313;49.894;8.084;2023-03-26T13:22:26;13.40;99.90
16408;DHT22;8313;49.894;8.084;2023-03-26T13:25:14;13.40;99.90
16408;DHT22;8313;49.894;8.084;2023-03-26T13:36:33;13.10;99.90
16408;DHT22;8313;49.894;8.084;2023-03-26T13:42:08;13.10;99.90
16408;DHT22;8313;49.894;8.084;2023-03-26T13:44:47;13.30;99.90
16408;DHT22;8313;49.894;8.084;2023-03-26T13:47:16;13.40;99.90
16408;DHT22;8313;49.894;8.084;2023-03-26T13:54:54;13.60;99.90
16408;DHT22;8313;49.894;8.084;2023-03-26T13:57:26;13.60;99.90
16408;DHT22;8313;49.894;8.084;2023-03-26T14:02:39;13.50;99.90
16408;DHT22;8313;49.894;8.084;2023-03-26T14:05:20;13.40;99.90
16408;DHT22;8313;49.894;8.084;2023-03-26T14:08:09;13.40;99.90
16408;DHT22;8313;49.894;8.084;2023-03-26T14:10:42;13.30;99.90
16408;DHT22;8313;49.894;8.084;2023-03-26T14:13:28;13.20;99.90
16408;DHT22;8313;49.894;8.084;2023-03-26T14:21:27;13.20;99.90
16408;DHT22;8313;49.894;8.084;2023-03-26T14:27:00;13.20;99.90
16408;DHT22;8313;49.894;8.084;2023-03-26T14:29:40;13.40;99.90
16408;DHT22;8313;49.894;8.084;2023-03-26T14:32:39;13.30;99.90
16408;DHT22;8313;49.894;8.084;2023-03-26T14:35:23;13.20;99.90
16408;DHT22;8313;49.894;8.084;2023-03-26T14:38:18;13.10;99.90
16408;DHT22;8313;49.894;8.084;2023-03-26T14:46:50;12.80;99.90
16408;DHT22;8313;49.894;8.084;2023-03-26T14:52:45;12.60;99.90
16408;DHT22;8313;49.894;8.084;2023-03-26T14:55:26;12.50;99.90
16408;DHT22;8313;49.894;8.084;2023-03-26T15:06:25;12.50;99.90
16408;DHT22;8313;49.894;8.084;2023-03-26T15:11:56;12.50;99.90
16408;DHT22;8313;49.894;8.084;2023-03-26T15:14:42;12.40;99.90
16408;DHT22;8313;49.894;8.084;2023-03-26T15:23:33;12.30;99.90
16408;DHT22;8313;49.894;8.084;2023-03-26T15:25:45;12.20;99.90
16408;DHT22;8313;49.894;8.084;2023-03-26T15:31:32;12.00;99.90
16408;DHT22;8313;49.894;8.084;2023-03-26T15:39:59;11.50;99.90
16408;DHT22;8313;49.894;8.084;2023-03-26T15:53:37;10.30;99.90
16408;DHT22;8313;49.894;8.084;2023-03-26T16:14:46;9.80;99.90
16408;DHT22;8313;49.894;8.084;2023-03-26T16:17:22;9.80;99.90
16408;DHT22;8313;49.894;8.084;2023-03-26T16:20:12;9.90;99.90
16408;DHT22;8313;49.894;8.084;2023-03-26T16:25:30;10.20;99.90
16408;DHT22;8313;49.894;8.084;2023-03-26T16:36:44;9.70;99.90
16408;DHT22;8313;49.894;8.084;2023-03-26T16:39:14;9.70;99.90
16408;DHT22;8313;49.894;8.084;2023-03-26T16:52:04;9.60;99.90
16408;DHT22;8313;49.894;8.084;2023-03-26T17:05:29;9.80;99.90
16408;DHT22;8313;49.894;8.084;2023-03-26T17:08:13;9.80;99.90
16408;DHT22;8313;49.894;8.084;2023-03-26T17:16:47;9.70;99.90
16408;DHT22;8313;49.894;8.084;2023-03-26T17:22:15;9.50;99.90
16408;DHT22;8313;49.894;8.084;2023-03-26T17:24:53;9.40;99.90
16408;DHT22;8313;49.894;8.084;2023-03-26T17:28:13;9.40;99.90
16408;DHT22;8313;49.894;8.084;2023-03-26T17:33:36;9.30;99.90
16408;DHT22;8313;49.894;8.084;2023-03-26T17:41:05;9.50;99.90
16408;DHT22;8313;49.894;8.084;2023-03-26T17:43:42;9.40;99.90
16408;DHT22;8313;49.894;8.084;2023-03-26T17:46:35;9.30;99.90
16408;DHT22;8313;49.894;8.084;2023-03-26T17:54:42;9.00;99.90
16408;DHT22;8313;49.894;8.084;2023-03-26T17:57:35;9.10;99.90
16408;DHT22;8313;49.894;8.084;2023-03-26T18:00:05;9.00;99.90
16408;DHT22;8313;49.894;8.084;2023-03-26T18:02:39;9.00;99.90
16408;DHT22;8313;49.894;8.084;2023-03-26T18:05:12;8.90;99.90
16408;DHT22;8313;49.894;8.084;2023-03-26T18:13:20;8.80;99.90
16408;DHT22;8313;49.894;8.084;2023-03-26T18:18:56;8.80;99.90
16408;DHT22;8313;49.894;8.084;2023-03-26T18:23:58;8.80;99.90
16408;DHT22;8313;49.894;8.084;2023-03-26T18:26:37;8.80;99.90
16408;DHT22;8313;49.894;8.084;2023-03-26T18:29:27;8.70;99.90
16408;DHT22;8313;49.894;8.084;2023-03-26T18:34:19;8.60;99.90
16408;DHT22;8313;49.894;8.084;2023-03-26T18:39:30;8.80;99.90
16408;DHT22;8313;49.894;8.084;2023-03-26T18:41:57;8.70;99.90
16408;DHT22;8313;49.894;8.084;2023-03-26T18:44:22;8.50;99.90
16408;DHT22;8313;49.894;8.084;2023-03-26T18:46:51;8.70;99.90
16408;DHT22;8313;49.894;8.084;2023-03-26T18:49:19;8.80;99.90
16408;DHT22;8313;49.894;8.084;2023-03-26T18:51:46;8.70;99.90
16408;DHT22;8313;49.894;8.084;2023-03-26T18:54:17;8.60;99.90
16408;DHT22;8313;49.894;8.084;2023-03-26T18:56:46;8.60;99.90
16408;DHT22;8313;49.894;8.084;2023-03-26T18:59:29;8.70;99.90
16408;DHT22;8313;49.894;8.084;2023-03-26T19:02:01;8.80;99.90
16408;DHT22;8313;49.894;8.084;2023-03-26T19:04:30;8.70;99.90
16408;DHT22;8313;49.894;8.084;2023-03-26T19:06:59;8.80;99.90
16408;DHT22;8313;49.894;8.084;2023-03-26T19:09:26;8.80;99.90
16408;DHT22;8313;49.894;8.084;2023-03-26T19:11:56;8.60;99.90
16408;DHT22;8313;49.894;8.084;2023-03-26T19:14:23;8.70;99.90
16408;DHT22;8313;49.894;8.084;2023-03-26T19:16:54;8.70;99.90
16408;DHT22;8313;49.894;8.084;2023-03-26T19:19:25;8.80;99.90
16408;DHT22;8313;49.894;8.084;2023-03-26T19:21:54;8.80;99.90
16408;DHT22;8313;49.894;8.084;2023-03-26T19:24:20;8.70;99.90
16408;DHT22;8313;49.894;8.084;2023-03-26T19:26:47;8.60;99.90
16408;DHT22;8313;49.894;8.084;2023-03-26T19:29:16;8.60;99.90
16408;DHT22;8313;49.894;8.084;2023-03-26T19:31:43;8.50;99.90
16408;DHT22;8313;49.894;8.084;2023-03-26T19:36:57;8.60;99.90
16408;DHT22;8313;49.894;8.084;2023-03-26T19:42:04;8.60;99.90
16408;DHT22;8313;49.894;8.084;2023-03-26T19:44:31;8.50;99.90
16408;DHT22;8313;49.894;8.084;2023-03-26T19:47:22;8.70;99.90
16408;DHT22;8313;49.894;8.084;2023-03-26T19:49:51;8.50;99.90
16408;DHT22;8313;49.894;8.084;2023-03-26T19:57:34;8.30;99.90
16408;DHT22;8313;49.894;8.084;2023-03-26T20:00:02;8.30;99.90
16408;DHT22;8313;49.894;8.084;2023-03-26T20:02:30;8.30;99.90
16408;DHT22;8313;49.894;8.084;2023-03-26T20:04:56;8.30;99.90
16408;DHT22;8313;49.894;8.084;2023-03-26T20:07:23;8.40;99.90
16408;DHT22;8313;49.894;8.084;2023-03-26T20:09:53;8.50;99.90
16408;DHT22;8313;49.894;8.084;2023-03-26T20:12:19;8.50;99.90
16408;DHT22;8313;49.894;8.084;2023-03-26T20:14:46;8.60;99.90
16408;DHT22;8313;49.894;8.084;2023-03-26T20:17:17;8.60;99.90
16408;DHT22;8313;49.894;8.084;2023-03-26T20:19:44;8.60;99.90
16408;DHT22;8313;49.894;8.084;2023-03-26T20:22:16;8.60;99.90
16408;DHT22;8313;49.894;8.084;2023-03-26T20:24:44;8.70;99.90
16408;DHT22;8313;49.894;8.084;2023-03-26T20:27:10;8.70;99.90
16408;DHT22;8313;49.894;8.084;2023-03-26T20:29:38;8.70;99.90
16408;DHT22;8313;49.894;8.084;2023-03-26T20:32:13;8.60;99.90
16408;DHT22;8313;49.894;8.084;2023-03-26T20:34:41;8.60;99.90
16408;DHT22;8313;49.894;8.084;2023-03-26T20:37:06;8.60;99.90
16408;DHT22;8313;49.894;8.084;2023-03-26T20:39:32;8.60;99.90
16408;DHT22;8313;49.894;8.084;2023-03-26T20:41:57;8.70;99.90
16408;DHT22;8313;49.894;8.084;2023-03-26T20:44:23;8.90;99.90
16408;DHT22;8313;49.894;8.084;2023-03-26T20:46:51;9.00;99.90
16408;DHT22;8313;49.894;8.084;2023-03-26T20:49:17;9.00;99.90
16408;DHT22;8313;49.894;8.084;2023-03-26T20:51:43;9.00;99.90
16408;DHT22;8313;49.894;8.084;2023-03-26T20:54:15;9.10;99.90
16408;DHT22;8313;49.894;8.084;2023-03-26T20:56:42;9.10;99.90
16408;DHT22;8313;49.894;8.084;2023-03-26T20:59:14;9.10;99.90
16408;DHT22;8313;49.894;8.084;2023-03-26T21:01:42;9.10;99.90
16408;DHT22;8313;49.894;8.084;2023-03-26T21:04:07;9.00;99.90
16408;DHT22;8313;49.894;8.084;2023-03-26T21:06:33;9.00;99.90
16408;DHT22;8313;49.894;8.084;2023-03-26T21:08:59;9.00;99.90
16408;DHT22;8313;49.894;8.084;2023-03-26T21:16:57;9.00;99.90
16408;DHT22;8313;49.894;8.084;2023-03-26T21:19:23;8.90;99.90
16408;DHT22;8313;49.894;8.084;2023-03-26T21:29:47;8.80;99.90
16408;DHT22;8313;49.894;8.084;2023-03-26T21:32:13;8.80;99.90
16408;DHT22;8313;49.894;8.084;2023-03-26T21:34:39;8.70;99.90
16408;DHT22;8313;49.894;8.084;2023-03-26T21:37:06;8.70;99.90
16408;DHT22;8313;49.894;8.084;2023-03-26T21:39:32;8.70;99.90
16408;DHT22;8313;49.894;8.084;2023-03-26T21:41:58;8.70;99.90
16408;DHT22;8313;49.894;8.084;2023-03-26T21:44:24;8.70;99.90
16408;DHT22;8313;49.894;8.084;2023-03-26T21:46:51;8.70;99.90
16408;DHT22;8313;49.894;8.084;2023-03-26T21:49:17;8.60;99.90
16408;DHT22;8313;49.894;8.084;2023-03-26T21:51:43;8.60;99.90
16408;DHT22;8313;49.894;8.084;2023-03-26T21:54:28;8.60;99.90
16408;DHT22;8313;49.894;8.084;2023-03-26T22:05:18;8.50;99.90
16408;DHT22;8313;49.894;8.084;2023-03-26T22:07:49;8.60;99.90
16408;DHT22;8313;49.894;8.084;2023-03-26T22:10:17;8.50;99.90
16408;DHT22;8313;49.894;8.084;2023-03-26T22:12:42;8.50;99.90
16408;DHT22;8313;49.894;8.084;2023-03-26T22:15:09;8.50;99.90
16408;DHT22;8313;49.894;8.084;2023-03-26T22:17:38;8.50;99.90
16408;DHT22;8313;49.894;8.084;2023-03-26T22:20:05;8.50;99.90
16408;DHT22;8313;49.894;8.084;2023-03-26T22:22:34;8.40;99.90
16408;DHT22;8313;49.894;8.084;2023-03-26T22:25:00;8.40;99.90
16408;DHT22;8313;49.894;8.084;2023-03-26T22:27:26;8.40;99.90
16408;DHT22;8313;49.894;8.084;2023-03-26T22:29:51;8.30;99.90
16408;DHT22;8313;49.894;8.084;2023-03-26T22:32:17;8.20;99.90
16408;DHT22;8313;49.894;8.084;2023-03-26T22:34:43;8.20;99.90
16408;DHT22;8313;49.894;8.084;2023-03-26T22:37:09;8.20;99.90
16408;DHT22;8313;49.894;8.084;2023-03-26T22:39:35;8.20;99.90
16408;DHT22;8313;49.894;8.084;2023-03-26T22:42:02;8.20;99.90
16408;DHT22;8313;49.894;8.084;2023-03-26T22:44:29;8.10;99.90
16408;DHT22;8313;49.894;8.084;2023-03-26T22:46:56;8.10;99.90
16408;DHT22;8313;49.894;8.084;2023-03-26T22:49:22;8.10;99.90
16408;DHT22;8313;49.894;8.084;2023-03-26T22:51:50;8.00;99.90
16408;DHT22;8313;49.894;8.084;2023-03-26T22:54:17;8.00;99.90
16408;DHT22;8313;49.894;8.084;2023-03-26T22:56:43;7.90;99.90
16408;DHT22;8313;49.894;8.084;2023-03-26T22:59:10;7.90;99.90
16408;DHT22;8313;49.894;8.084;2023-03-26T23:01:36;7.90;99.90
16408;DHT22;8313;49.894;8.084;2023-03-26T23:04:01;7.80;99.90
16408;DHT22;8313;49.894;8.084;2023-03-26T23:06:27;7.90;99.90